createdAt,value
2023-03-15T00:02:39.834Z,94399.00
2023-03-15T00:06:39.895Z,94393.00
2023-03-15T00:10:40.081Z,94404.00
2023-03-15T00:14:40.195Z,94422.00
2023-03-15T00:18:40.336Z,94416.00
2023-03-15T00:22:40.558Z,94399.00
2023-03-15T00:26:40.628Z,94393.00
2023-03-15T00:30:40.785Z,94383.00
2023-03-15T00:34:40.955Z,94387.00
2023-03-15T00:38:41.094Z,94393.00
2023-03-15T00:42:41.211Z,94395.00
2023-03-15T00:46:41.431Z,94391.00
2023-03-15T00:50:41.517Z,94379.00
2023-03-15T00:54:41.786Z,94381.00
2023-03-15T00:58:41.812Z,94369.00
2023-03-15T01:02:42.032Z,94357.00
2023-03-15T01:06:42.101Z,94359.00
2023-03-15T01:10:42.237Z,94367.00
2023-03-15T01:14:42.400Z,94359.00
2023-03-15T01:18:42.623Z,94355.00
2023-03-15T01:22:42.728Z,94354.00
2023-03-15T01:26:42.869Z,94359.00
2023-03-15T01:30:43.011Z,94361.00
2023-03-15T01:34:43.220Z,94363.00
2023-03-15T01:38:43.340Z,94354.00
2023-03-15T01:42:43.454Z,94352.00
2023-03-15T01:46:43.736Z,94350.00
2023-03-15T01:50:43.764Z,94350.00
2023-03-15T01:54:43.910Z,94346.00
2023-03-15T01:58:44.132Z,94338.00
2023-03-15T02:02:44.223Z,94336.00
2023-03-15T02:06:44.388Z,94332.00
2023-03-15T02:10:44.565Z,94330.00
2023-03-15T02:14:44.767Z,94326.00
2023-03-15T02:18:44.872Z,94334.00
2023-03-15T02:22:45.060Z,94346.00
2023-03-15T02:26:45.223Z,94361.00
2023-03-15T02:30:45.403Z,94383.00
2023-03-15T02:34:45.539Z,94395.00
2023-03-15T02:38:45.718Z,94402.00
2023-03-15T02:42:45.872Z,94416.00
2023-03-15T02:46:46.046Z,94444.00
2023-03-15T02:50:46.229Z,94453.00
2023-03-15T02:54:46.395Z,94455.00
2023-03-15T02:58:46.595Z,94483.00
2023-03-15T03:02:46.810Z,94481.00
2023-03-15T03:06:46.899Z,94483.00
2023-03-15T03:10:47.115Z,94491.00
2023-03-15T03:14:47.308Z,94506.00
2023-03-15T03:18:47.476Z,94516.00
2023-03-15T03:22:47.676Z,94514.00
2023-03-15T03:26:47.869Z,94518.00
2023-03-15T03:30:48.093Z,94520.00
2023-03-15T03:34:48.264Z,94524.00
2023-03-15T03:38:48.422Z,94528.00
2023-03-15T03:42:48.735Z,94540.00
2023-03-15T03:46:48.792Z,94551.00
2023-03-15T03:50:48.986Z,94555.00
2023-03-15T03:54:49.168Z,94565.00
2023-03-15T03:58:49.385Z,94565.00
2023-03-15T04:02:49.604Z,94591.00
2023-03-15T04:06:49.719Z,94577.00
2023-03-15T04:10:49.954Z,94596.00
2023-03-15T04:14:50.133Z,94616.00
2023-03-15T04:18:50.329Z,94612.00
2023-03-15T04:22:50.551Z,94640.00
2023-03-15T04:26:50.759Z,94626.00
2023-03-15T04:30:50.954Z,94661.00
2023-03-15T04:34:51.151Z,94669.00
2023-03-15T04:38:51.332Z,94675.00
2023-03-15T04:42:51.568Z,94689.00
2023-03-15T04:46:51.800Z,94679.00
2023-03-15T04:50:51.954Z,94689.00
2023-03-15T04:54:52.137Z,94696.00
2023-03-15T04:59:17.382Z,94689.00
2023-03-15T05:03:17.176Z,94702.00
2023-03-15T05:07:17.107Z,94712.00
2023-03-15T05:11:17.068Z,94724.00
2023-03-15T05:15:17.110Z,94718.00
2023-03-15T05:19:16.985Z,94718.00
2023-03-15T05:23:16.975Z,94730.00
2023-03-15T05:27:16.951Z,94743.00
2023-03-15T05:31:16.994Z,94765.00
2023-03-15T05:35:16.869Z,94751.00
2023-03-15T05:39:17.025Z,94777.00
2023-03-15T05:43:17.218Z,94796.00
2023-03-15T05:47:17.462Z,94800.00
2023-03-15T05:51:17.661Z,94808.00
2023-03-15T05:55:17.774Z,94822.00
2023-03-15T05:59:17.914Z,94824.00
2023-03-15T06:03:18.158Z,94838.00
2023-03-15T06:07:18.350Z,94845.00
2023-03-15T06:11:18.378Z,94838.00
2023-03-15T06:15:18.535Z,94855.00
2023-03-15T06:19:18.695Z,94863.00
2023-03-15T06:23:18.809Z,94875.00
2023-03-15T06:27:18.930Z,94883.00
2023-03-15T06:31:19.143Z,94906.00
2023-03-15T06:35:19.439Z,94904.00
2023-03-15T06:39:19.331Z,94922.00
2023-03-15T06:43:19.943Z,94926.00
2023-03-15T06:47:19.925Z,94928.00
2023-03-15T06:51:19.933Z,94947.00
2023-03-15T06:55:19.841Z,94951.00
2023-03-15T06:59:20.416Z,94957.00
2023-03-15T07:03:20.439Z,94959.00
2023-03-15T07:07:20.243Z,94975.00
2023-03-15T07:11:20.381Z,95002.00
2023-03-15T07:15:20.520Z,94979.00
2023-03-15T07:19:20.648Z,94987.00
2023-03-15T07:23:20.762Z,95010.00
2023-03-15T07:27:20.903Z,95016.00
2023-03-15T07:31:21.477Z,95022.00
2023-03-15T07:35:21.122Z,95028.00
2023-03-15T07:39:21.450Z,95043.00
2023-03-15T07:43:21.390Z,95057.00
2023-03-15T07:47:21.954Z,95065.00
2023-03-15T07:51:21.656Z,95049.00
2023-03-15T07:55:21.791Z,95061.00
2023-03-15T07:59:21.898Z,95057.00
2023-03-15T08:03:22.501Z,95065.00
2023-03-15T08:07:22.185Z,95049.00
2023-03-15T08:11:22.300Z,95063.00
2023-03-15T08:15:22.394Z,95059.00
2023-03-15T08:19:22.583Z,95061.00
2023-03-15T08:23:22.979Z,95059.00
2023-03-15T08:27:22.839Z,95061.00
2023-03-15T08:31:23.126Z,95065.00
2023-03-15T08:35:23.495Z,95059.00
2023-03-15T08:39:23.459Z,95061.00
2023-03-15T08:43:23.979Z,95059.00
2023-03-15T08:47:23.748Z,95057.00
2023-03-15T08:51:23.975Z,95053.00
2023-03-15T08:55:23.905Z,95057.00
2023-03-15T08:59:31.749Z,95053.00
2023-03-15T09:03:24.861Z,95049.00
2023-03-15T09:07:23.801Z,95043.00
2023-03-15T09:11:23.785Z,95045.00
2023-03-15T09:15:23.782Z,95034.00
2023-03-15T09:19:23.961Z,95032.00
2023-03-15T09:23:24.095Z,95028.00
2023-03-15T09:27:24.176Z,95028.00
2023-03-15T09:31:24.300Z,95028.00
2023-03-15T09:35:24.493Z,95034.00
2023-03-15T09:39:24.291Z,95032.00
2023-03-15T09:43:24.475Z,95026.00
2023-03-15T09:47:24.523Z,95022.00
2023-03-15T09:51:24.540Z,95032.00
2023-03-15T09:55:24.168Z,95022.00
2023-03-15T09:59:24.108Z,95022.00
2023-03-15T10:03:24.560Z,95028.00
2023-03-15T10:07:24.101Z,95028.00
2023-03-15T10:11:24.039Z,95028.00
2023-03-15T10:15:23.993Z,95026.00
2023-03-15T10:19:23.949Z,95028.00
2023-03-15T10:23:24.006Z,95032.00
2023-03-15T10:27:23.907Z,95030.00
2023-03-15T10:31:32.867Z,95024.00
2023-03-15T10:35:24.825Z,95026.00
2023-03-15T10:39:23.993Z,95022.00
2023-03-15T10:43:23.978Z,95020.00
2023-03-15T10:47:24.795Z,95018.00
2023-03-15T10:51:23.752Z,95012.00
2023-03-15T10:55:23.704Z,95012.00
2023-03-15T10:59:23.669Z,95010.00
2023-03-15T11:03:24.024Z,95004.00
2023-03-15T11:07:23.596Z,95004.00
2023-03-15T11:11:23.571Z,95000.00
2023-03-15T11:15:23.518Z,94996.00
2023-03-15T11:19:23.489Z,95000.00
2023-03-15T11:23:23.441Z,95000.00
2023-03-15T11:27:23.478Z,94994.00
2023-03-15T11:31:24.063Z,94996.00
2023-03-15T11:35:23.545Z,95004.00
2023-03-15T11:39:24.080Z,95014.00
2023-03-15T11:43:24.014Z,95004.00
2023-03-15T11:47:23.774Z,94994.00
2023-03-15T11:51:23.947Z,94987.00
2023-03-15T11:55:24.183Z,94987.00
2023-03-15T11:59:24.215Z,94981.00
2023-03-15T12:03:24.321Z,94973.00
2023-03-15T12:07:24.649Z,94961.00
2023-03-15T12:11:25.502Z,94967.00
2023-03-15T12:15:24.563Z,94965.00
2023-03-15T12:19:24.718Z,94959.00
2023-03-15T12:23:25.052Z,94963.00
2023-03-15T12:27:24.885Z,94961.00
2023-03-15T12:31:24.968Z,94961.00
2023-03-15T12:35:25.048Z,94959.00
2023-03-15T12:39:24.924Z,94957.00
2023-03-15T12:43:24.951Z,94955.00
2023-03-15T12:47:24.929Z,94955.00
2023-03-15T12:51:24.944Z,94945.00
2023-03-15T12:55:24.948Z,94959.00
2023-03-15T12:59:24.958Z,94955.00
2023-03-15T13:03:24.998Z,94959.00
2023-03-15T13:07:25.071Z,94959.00
2023-03-15T13:11:25.029Z,94951.00
2023-03-15T13:15:24.998Z,94951.00
2023-03-15T13:19:24.939Z,94963.00
2023-03-15T13:23:26.164Z,94959.00
2023-03-15T13:27:24.874Z,94955.00
2023-03-15T13:31:24.923Z,94955.00
2023-03-15T13:35:24.834Z,94951.00
2023-03-15T13:39:24.769Z,94955.00
2023-03-15T13:43:24.730Z,94945.00
2023-03-15T13:47:24.765Z,94951.00
2023-03-15T13:51:24.843Z,94955.00
2023-03-15T13:55:24.928Z,94965.00
2023-03-15T13:59:25.032Z,94963.00
2023-03-15T14:03:25.087Z,94967.00
2023-03-15T14:07:25.162Z,94967.00
2023-03-15T14:11:25.214Z,94977.00
2023-03-15T14:15:25.327Z,94975.00
2023-03-15T14:19:25.327Z,94977.00
2023-03-15T14:23:25.401Z,94975.00
2023-03-15T14:27:25.447Z,94981.00
2023-03-15T14:39:50.829Z,94979.00
2023-03-15T14:43:50.790Z,94989.00
2023-03-15T14:47:57.268Z,94994.00
2023-03-15T14:51:51.756Z,95002.00
2023-03-15T14:55:50.688Z,95014.00
2023-03-15T14:59:50.645Z,95006.00
2023-03-15T15:03:50.612Z,95012.00
2023-03-15T15:07:50.747Z,95016.00
2023-03-15T15:11:50.939Z,95020.00
2023-03-15T15:15:56.062Z,95022.00
2023-03-15T15:19:52.049Z,95016.00
2023-03-15T15:23:58.545Z,95026.00
2023-03-15T15:27:51.970Z,95028.00
2023-03-15T15:31:51.052Z,95016.00
2023-03-15T15:35:50.912Z,95014.00
2023-03-15T15:39:51.556Z,95030.00
2023-03-15T15:43:50.815Z,95026.00
2023-03-15T15:47:50.885Z,95039.00
2023-03-15T15:51:51.065Z,95036.00
2023-03-15T15:55:51.259Z,95051.00
2023-03-15T15:59:51.475Z,95051.00
2023-03-15T16:03:51.437Z,95053.00
2023-03-15T16:07:51.401Z,95061.00
2023-03-15T16:11:51.358Z,95059.00
2023-03-15T16:15:51.380Z,95065.00
2023-03-15T16:19:51.298Z,95065.00
2023-03-15T16:23:51.215Z,95073.00
2023-03-15T16:27:51.188Z,95081.00
2023-03-15T16:31:51.325Z,95081.00
2023-03-15T16:35:51.149Z,95090.00
2023-03-15T16:39:51.236Z,95092.00
2023-03-15T16:43:51.217Z,95100.00
2023-03-15T16:47:51.175Z,95110.00
2023-03-15T16:51:51.093Z,95116.00
2023-03-15T16:55:51.100Z,95120.00
2023-03-15T16:59:51.073Z,95126.00
2023-03-15T17:03:51.031Z,95126.00
2023-03-15T17:07:50.993Z,95135.00
2023-03-15T17:11:50.947Z,95139.00
2023-03-15T17:15:50.953Z,95149.00
2023-03-15T17:19:51.077Z,95155.00
2023-03-15T17:23:51.024Z,95157.00
2023-03-15T17:27:50.971Z,95171.00
2023-03-15T17:31:50.977Z,95175.00
2023-03-15T17:35:50.957Z,95179.00
2023-03-15T17:39:50.891Z,95185.00
2023-03-15T17:43:50.824Z,95188.00
2023-03-15T17:47:50.827Z,95192.00
2023-03-15T17:51:50.774Z,95194.00
2023-03-15T17:55:50.727Z,95200.00
2023-03-15T17:59:50.694Z,95200.00
2023-03-15T18:03:50.746Z,95190.00
2023-03-15T18:07:58.520Z,95198.00
2023-03-15T18:11:51.615Z,95202.00
2023-03-15T18:15:50.587Z,95204.00
2023-03-15T18:19:50.521Z,95210.00
2023-03-15T18:23:50.525Z,95214.00
2023-03-15T18:27:50.490Z,95218.00
2023-03-15T18:31:50.446Z,95214.00
2023-03-15T18:35:50.433Z,95220.00
2023-03-15T18:39:50.355Z,95224.00
2023-03-15T18:43:50.322Z,95222.00
2023-03-15T18:47:50.295Z,95218.00
2023-03-15T18:51:50.294Z,95220.00
2023-03-15T18:55:50.287Z,95224.00
2023-03-15T18:59:50.235Z,95230.00
2023-03-15T19:03:50.257Z,95233.00
2023-03-15T19:07:50.249Z,95239.00
2023-03-15T19:11:50.246Z,95245.00
2023-03-15T19:15:50.233Z,95245.00
2023-03-15T19:19:50.204Z,95255.00
2023-03-15T19:23:50.189Z,95249.00
2023-03-15T19:27:50.226Z,95259.00
2023-03-15T19:31:50.187Z,95263.00
2023-03-15T19:35:50.210Z,95263.00
2023-03-15T19:39:50.162Z,95263.00
2023-03-15T19:43:50.126Z,95267.00
2023-03-15T19:47:50.125Z,95271.00
2023-03-15T19:51:50.104Z,95271.00
2023-03-15T19:55:50.104Z,95267.00
2023-03-15T19:59:50.120Z,95275.00
2023-03-15T20:03:50.179Z,95279.00
2023-03-15T20:07:50.122Z,95275.00
2023-03-15T20:11:50.152Z,95269.00
2023-03-15T20:15:50.201Z,95265.00
2023-03-15T20:19:50.183Z,95269.00
2023-03-15T20:23:50.209Z,95275.00
2023-03-15T20:27:50.241Z,95273.00
2023-03-15T20:31:50.293Z,95279.00
2023-03-15T20:35:50.273Z,95273.00
2023-03-15T20:39:50.240Z,95281.00
2023-03-15T20:43:50.285Z,95277.00
2023-03-15T20:47:50.259Z,95279.00
2023-03-15T20:51:50.358Z,95285.00
2023-03-15T20:55:50.294Z,95298.00
2023-03-15T20:59:50.294Z,95298.00
2023-03-15T21:03:50.425Z,95302.00
2023-03-15T21:07:50.339Z,95308.00
2023-03-15T21:11:50.345Z,95308.00
2023-03-15T21:15:50.354Z,95314.00
2023-03-15T21:19:50.352Z,95312.00
2023-03-15T21:23:50.343Z,95314.00
2023-03-15T21:27:50.364Z,95318.00
2023-03-15T21:31:50.483Z,95312.00
2023-03-15T21:35:50.448Z,95310.00
2023-03-15T21:39:50.363Z,95306.00
2023-03-15T21:43:50.387Z,95308.00
2023-03-15T21:47:50.420Z,95308.00
2023-03-15T21:51:50.417Z,95312.00
2023-03-15T21:55:50.465Z,95314.00
2023-03-15T21:59:50.509Z,95312.00
2023-03-15T22:03:50.527Z,95314.00
2023-03-15T22:07:50.585Z,95318.00
2023-03-15T22:11:50.596Z,95320.00
2023-03-15T22:15:50.605Z,95316.00
2023-03-15T22:19:50.640Z,95320.00
2023-03-15T22:23:50.679Z,95326.00
2023-03-15T22:27:50.730Z,95324.00
2023-03-15T22:31:50.741Z,95320.00
2023-03-15T22:35:50.769Z,95322.00
2023-03-15T22:39:50.829Z,95330.00
2023-03-15T22:43:50.840Z,95334.00
2023-03-15T22:47:50.834Z,95335.00
2023-03-15T22:51:50.915Z,95341.00
2023-03-15T22:55:50.943Z,95351.00
2023-03-15T22:59:51.003Z,95349.00
2023-03-15T23:03:51.045Z,95349.00
2023-03-15T23:07:51.102Z,95351.00
2023-03-15T23:11:51.226Z,95353.00
2023-03-15T23:15:51.257Z,95355.00
2023-03-15T23:19:51.246Z,95355.00
2023-03-15T23:23:51.288Z,95351.00
2023-03-15T23:27:51.346Z,95353.00
2023-03-15T23:31:51.393Z,95359.00
2023-03-15T23:35:51.546Z,95369.00
2023-03-15T23:39:51.545Z,95367.00
2023-03-15T23:43:51.605Z,95361.00
2023-03-15T23:47:51.641Z,95371.00
2023-03-15T23:51:51.713Z,95375.00
2023-03-15T23:55:51.763Z,95384.00
2023-03-15T23:59:51.856Z,95377.00
